Time;durP1;ratioP1;P1;durP2;ratioP2;P2;SDS_P1;SDS_P2;PMS_P1;PMS_P2;Temp;Humidity;BMP_temperature;BMP_pressure;BME280_temperature;BME280_humidity;BME280_pressure;Samples;Min_cycle;Max_cycle;Signal;HPM_P1;HPM_P2
2021/05/10 00:00:55;;;;;;;8.60;6.30;;;17.70;99.90;;;;;;5080965;28;20421;-66
2021/05/10 00:07:02;;;;;;;7.40;5.90;;;17.60;99.90;;;;;;5064394;28;20047;-67
2021/05/10 00:09:28;;;;;;;9.98;7.05;;;17.50;99.90;;;;;;5067509;28;20100;-66
2021/05/10 00:11:54;;;;;;;7.18;6.47;;;17.40;99.90;;;;;;5057706;28;20041;-66
2021/05/10 00:14:37;;;;;;;8.18;6.90;;;17.50;99.90;;;;;;5067118;28;20118;-66
2021/05/10 00:17:03;;;;;;;9.05;7.38;;;17.50;99.90;;;;;;5066709;28;20056;-66
2021/05/10 00:19:29;;;;;;;8.13;7.28;;;17.40;99.90;;;;;;5067242;28;20513;-67
2021/05/10 00:21:55;;;;;;;7.85;6.78;;;17.50;99.90;;;;;;5066958;28;20075;-66
2021/05/10 00:24:21;;;;;;;7.68;6.82;;;17.60;99.90;;;;;;5055032;28;20095;-66
2021/05/10 00:26:48;;;;;;;7.07;6.38;;;17.50;99.90;;;;;;5067194;28;20065;-66
2021/05/10 00:29:17;;;;;;;8.80;7.38;;;17.30;99.90;;;;;;5067707;28;20056;-66
2021/05/10 00:31:45;;;;;;;8.30;7.35;;;17.20;99.90;;;;;;5067935;28;20147;-66
2021/05/10 00:34:12;;;;;;;9.02;7.05;;;17.10;99.90;;;;;;5069714;28;20040;-66
2021/05/10 00:36:38;;;;;;;8.63;7.65;;;17.00;99.90;;;;;;5079695;28;20143;-66
2021/05/10 00:39:05;;;;;;;10.68;8.15;;;16.90;99.90;;;;;;5066759;28;20059;-66
2021/05/10 00:41:31;;;;;;;9.40;8.18;;;17.00;99.90;;;;;;5059734;28;20044;-67
2021/05/10 00:43:57;;;;;;;8.10;7.30;;;17.00;99.90;;;;;;5066677;28;20196;-67
2021/05/10 00:46:23;;;;;;;10.02;7.80;;;17.00;99.90;;;;;;5066748;28;20106;-67
2021/05/10 00:48:49;;;;;;;10.20;8.13;;;17.00;99.90;;;;;;5066029;28;20052;-67
2021/05/10 00:51:16;;;;;;;9.60;8.48;;;17.10;99.90;;;;;;5066208;28;20047;-67
2021/05/10 00:53:42;;;;;;;10.85;9.13;;;17.10;99.90;;;;;;5066454;28;20049;-67
2021/05/10 00:56:08;;;;;;;8.85;7.95;;;17.10;99.90;;;;;;5066112;28;20049;-67
2021/05/10 00:58:34;;;;;;;10.25;8.45;;;17.20;99.90;;;;;;5066996;28;20049;-67
2021/05/10 01:01:00;;;;;;;10.55;8.63;;;17.20;99.90;;;;;;5066457;28;20045;-66
2021/05/10 01:03:27;;;;;;;11.35;8.88;;;17.10;99.90;;;;;;5066148;28;20045;-66
2021/05/10 01:05:53;;;;;;;9.95;8.95;;;17.20;99.90;;;;;;5066209;28;20044;-66
2021/05/10 01:08:19;;;;;;;10.27;9.20;;;17.20;99.90;;;;;;5065251;28;20048;-66
2021/05/10 01:10:45;;;;;;;10.30;8.68;;;17.20;99.90;;;;;;5065997;28;20056;-66
2021/05/10 01:13:12;;;;;;;9.45;8.48;;;17.20;99.90;;;;;;5066355;28;20524;-67
2021/05/10 01:15:40;;;;;;;10.48;9.30;;;17.30;99.90;;;;;;5069084;28;20040;-67
2021/05/10 01:18:16;;;;;;;12.73;10.20;;;17.30;99.90;;;;;;5075230;28;20064;-66
2021/05/10 01:20:43;;;;;;;11.80;10.57;;;17.30;99.90;;;;;;5066940;28;20037;-67
2021/05/10 01:23:10;;;;;;;11.07;9.82;;;17.30;99.90;;;;;;5066849;28;20060;-67
2021/05/10 01:25:35;;;;;;;11.32;10.07;;;17.40;99.90;;;;;;5066593;28;20041;-67
2021/05/10 01:28:03;;;;;;;11.80;10.40;;;17.40;99.90;;;;;;5066628;28;20052;-67
2021/05/10 01:30:35;;;;;;;11.52;9.65;;;17.50;99.90;;;;;;5065731;28;20048;-67
2021/05/10 01:33:03;;;;;;;10.38;9.30;;;17.50;99.90;;;;;;5065674;28;20067;-67
2021/05/10 01:35:32;;;;;;;10.68;9.30;;;17.50;99.90;;;;;;5065823;28;20045;-66
2021/05/10 01:38:04;;;;;;;12.80;10.00;;;17.50;99.90;;;;;;5065701;28;20055;-67
2021/05/10 01:40:31;;;;;;;10.15;9.05;;;17.50;99.90;;;;;;5069760;28;20496;-67
2021/05/10 01:42:57;;;;;;;11.90;10.05;;;17.40;99.90;;;;;;5065707;28;20052;-67
2021/05/10 01:45:23;;;;;;;12.73;10.35;;;17.30;99.90;;;;;;5065967;28;20168;-67
2021/05/10 01:48:05;;;;;;;9.70;8.48;;;17.30;99.90;;;;;;5065394;28;20074;-67
2021/05/10 01:50:50;;;;;;;13.57;10.02;;;17.20;99.90;;;;;;5054766;28;20053;-66
2021/05/10 01:53:17;;;;;;;12.23;10.90;;;17.20;99.90;;;;;;5065625;28;20061;-67
2021/05/10 01:55:43;;;;;;;13.95;10.57;;;17.10;99.90;;;;;;5074589;28;20049;-67
2021/05/10 01:58:10;;;;;;;11.25;10.15;;;17.00;99.90;;;;;;5070419;28;20053;-67
2021/05/10 02:00:38;;;;;;;11.23;9.95;;;17.00;99.90;;;;;;5065340;28;20051;-66
2021/05/10 02:03:07;;;;;;;10.68;9.68;;;16.90;99.90;;;;;;5065005;28;20136;-66
2021/05/10 02:05:34;;;;;;;12.45;10.13;;;16.90;99.90;;;;;;5066261;28;20076;-66
2021/05/10 02:08:02;;;;;;;13.30;10.55;;;16.90;99.90;;;;;;5059353;28;20041;-66
2021/05/10 02:10:46;;;;;;;11.20;9.95;;;16.90;99.90;;;;;;5065443;28;20063;-66
2021/05/10 02:13:17;;;;;;;11.02;9.57;;;16.90;99.90;;;;;;5065124;28;20045;-66
2021/05/10 02:15:44;;;;;;;12.23;10.02;;;16.90;99.90;;;;;;5064952;28;20051;-66
2021/05/10 02:18:12;;;;;;;10.80;9.25;;;16.80;99.90;;;;;;5069099;28;20041;-66
2021/05/10 02:20:39;;;;;;;11.35;10.10;;;16.70;99.90;;;;;;5065021;28;20108;-66
2021/05/10 02:23:19;;;;;;;11.38;10.00;;;16.70;99.90;;;;;;5065959;28;20048;-66
2021/05/10 02:25:47;;;;;;;11.00;9.90;;;16.70;99.90;;;;;;5065058;28;20528;-66
2021/05/10 02:28:16;;;;;;;10.57;9.57;;;16.70;99.90;;;;;;5051734;28;20048;-66
2021/05/10 02:30:42;;;;;;;12.65;9.85;;;16.70;99.90;;;;;;5064582;28;20145;-66
2021/05/10 02:33:14;;;;;;;12.02;10.05;;;16.80;99.90;;;;;;5051824;28;20044;-66
2021/05/10 02:35:50;;;;;;;10.85;9.68;;;16.90;99.90;;;;;;5064541;28;20056;-66
2021/05/10 02:38:16;;;;;;;12.05;9.85;;;16.80;99.90;;;;;;5064926;28;20067;-66
2021/05/10 02:40:43;;;;;;;12.15;10.85;;;16.80;99.90;;;;;;5064353;28;20053;-67
2021/05/10 02:43:23;;;;;;;12.25;10.95;;;16.80;99.90;;;;;;5078591;28;20041;-67
2021/05/10 02:45:49;;;;;;;14.13;10.93;;;16.80;99.90;;;;;;5065562;28;20049;-67
2021/05/10 02:48:16;;;;;;;11.60;10.43;;;16.80;99.90;;;;;;5065096;28;20448;-67
2021/05/10 02:50:42;;;;;;;12.88;11.52;;;16.80;99.90;;;;;;5064432;28;20051;-67
2021/05/10 02:53:08;;;;;;;13.13;10.30;;;16.80;99.90;;;;;;5063537;28;20072;-67
2021/05/10 02:55:34;;;;;;;12.27;11.07;;;16.80;99.90;;;;;;5065644;28;20045;-66
2021/05/10 02:58:00;;;;;;;11.90;10.70;;;16.70;99.90;;;;;;5065197;28;20072;-67
2021/05/10 03:00:28;;;;;;;13.27;11.18;;;16.70;99.90;;;;;;5064445;28;20064;-67
2021/05/10 03:02:56;;;;;;;12.02;10.82;;;16.60;99.90;;;;;;5064793;28;20041;-67
2021/05/10 03:05:23;;;;;;;13.30;12.00;;;16.70;99.90;;;;;;5064849;28;20048;-67
2021/05/10 03:07:49;;;;;;;12.40;11.20;;;16.70;99.90;;;;;;5056740;28;20040;-67
2021/05/10 03:10:18;;;;;;;14.50;11.90;;;16.80;99.90;;;;;;5056210;28;20124;-67
2021/05/10 03:12:44;;;;;;;12.23;11.00;;;16.80;99.90;;;;;;5065815;28;20048;-67
2021/05/10 03:15:15;;;;;;;13.67;10.70;;;16.70;99.90;;;;;;5068219;28;20059;-67
2021/05/10 03:17:42;;;;;;;13.20;11.82;;;16.70;99.90;;;;;;5068413;28;20037;-67
2021/05/10 03:20:15;;;;;;;13.40;11.48;;;16.60;99.90;;;;;;5079448;28;20056;-67
2021/05/10 03:22:41;;;;;;;14.60;11.38;;;16.60;99.90;;;;;;5068740;28;20060;-67
2021/05/10 03:25:09;;;;;;;13.48;11.48;;;16.50;99.90;;;;;;5080323;28;20436;-67
2021/05/10 03:27:41;;;;;;;14.25;11.23;;;16.50;99.90;;;;;;5068981;28;20051;-67
2021/05/10 03:30:14;;;;;;;13.13;11.82;;;16.50;99.90;;;;;;5067809;28;20037;-67
2021/05/10 03:32:41;;;;;;;14.93;12.20;;;16.50;99.90;;;;;;5054992;28;20060;-66
2021/05/10 03:35:10;;;;;;;11.93;10.32;;;16.40;99.90;;;;;;5067431;28;20140;-67
2021/05/10 03:37:36;;;;;;;12.27;11.07;;;16.40;99.90;;;;;;5067961;28;20069;-67
2021/05/10 03:40:04;;;;;;;13.68;11.38;;;16.40;99.90;;;;;;5067692;28;20057;-66
2021/05/10 03:42:31;;;;;;;13.00;11.70;;;16.40;99.90;;;;;;5067825;28;20056;-67
2021/05/10 03:44:57;;;;;;;12.20;10.88;;;16.40;99.90;;;;;;5067757;28;20049;-65
2021/05/10 03:47:33;;;;;;;11.88;10.52;;;16.40;99.90;;;;;;5068379;28;20045;-66
2021/05/10 03:50:01;;;;;;;12.02;10.23;;;16.40;99.90;;;;;;5068621;28;20045;-67
2021/05/10 03:52:27;;;;;;;10.60;9.57;;;16.40;99.90;;;;;;5068661;28;20052;-66
2021/05/10 03:54:53;;;;;;;11.68;9.75;;;16.40;99.90;;;;;;5068456;28;20099;-66
2021/05/10 03:57:21;;;;;;;10.43;9.43;;;16.50;99.90;;;;;;5068000;28;20052;-66
2021/05/10 03:59:48;;;;;;;11.55;9.52;;;16.50;99.90;;;;;;5067123;28;20045;-66
2021/05/10 04:02:14;;;;;;;10.18;9.13;;;16.50;99.90;;;;;;5067261;28;20587;-66
2021/05/10 04:04:48;;;;;;;10.57;8.77;;;16.60;99.90;;;;;;5067525;28;20045;-66
2021/05/10 04:07:23;;;;;;;9.90;8.85;;;16.60;99.90;;;;;;5067566;28;20040;-66
2021/05/10 04:10:18;;;;;;;9.48;8.05;;;16.60;99.90;;;;;;5055119;28;20045;-66
2021/05/10 04:15:27;;;;;;;9.88;8.10;;;16.60;99.90;;;;;;5068011;28;20072;-67
2021/05/10 04:17:52;;;;;;;8.25;7.30;;;16.70;99.90;;;;;;5068261;28;20041;-65
2021/05/10 04:20:18;;;;;;;8.23;7.38;;;16.80;99.90;;;;;;5068288;28;20041;-67
2021/05/10 04:22:44;;;;;;;7.63;6.80;;;16.90;99.90;;;;;;5067521;28;20045;-67
2021/05/10 04:25:11;;;;;;;7.45;6.53;;;16.90;99.90;;;;;;5065594;28;20063;-67
2021/05/10 04:27:37;;;;;;;7.00;6.30;;;16.90;99.90;;;;;;5066703;28;20144;-65
2021/05/10 04:30:04;;;;;;;6.45;5.38;;;16.90;99.90;;;;;;5067009;28;20536;-66
2021/05/10 04:32:35;;;;;;;6.85;5.90;;;17.00;99.90;;;;;;5066919;28;20052;-66
2021/05/10 04:35:01;;;;;;;8.27;6.18;;;17.00;99.90;;;;;;5067251;28;20044;-67
2021/05/10 04:37:27;;;;;;;5.53;4.93;;;17.00;99.90;;;;;;5067901;28;20066;-66
2021/05/10 04:39:53;;;;;;;6.05;4.88;;;17.00;99.90;;;;;;5067663;28;20049;-66
2021/05/10 04:42:19;;;;;;;6.30;4.72;;;17.10;99.90;;;;;;5066954;28;20045;-66
2021/05/10 04:44:50;;;;;;;6.90;4.43;;;17.30;99.90;;;;;;5067674;28;20041;-66
2021/05/10 04:47:17;;;;;;;8.90;4.90;;;17.30;99.90;;;;;;5066919;28;20045;-66
2021/05/10 04:49:43;;;;;;;5.53;5.03;;;17.40;99.90;;;;;;5066565;28;20125;-66
2021/05/10 04:52:09;;;;;;;5.10;3.65;;;17.30;99.90;;;;;;5066407;28;20052;-66
2021/05/10 04:54:39;;;;;;;7.55;3.97;;;17.30;99.90;;;;;;5066402;28;20048;-66
2021/05/10 04:57:05;;;;;;;5.78;3.65;;;17.40;99.90;;;;;;5066345;28;20080;-66
2021/05/10 04:59:33;;;;;;;5.13;3.50;;;17.50;99.90;;;;;;5066268;28;20049;-66
2021/05/10 05:01:59;;;;;;;5.55;3.20;;;17.60;99.90;;;;;;5075349;28;20043;-66
2021/05/10 05:04:25;;;;;;;3.55;2.80;;;17.60;99.90;;;;;;5070286;28;20044;-66
2021/05/10 05:06:51;;;;;;;5.03;3.03;;;17.60;99.90;;;;;;5063317;28;20494;-66
2021/05/10 05:09:17;;;;;;;5.47;3.22;;;17.60;99.90;;;;;;5063730;28;20067;-66
2021/05/10 05:11:43;;;;;;;5.45;3.28;;;17.60;99.90;;;;;;5077193;28;20102;-67
2021/05/10 05:14:09;;;;;;;6.53;2.63;;;17.60;99.90;;;;;;5066070;28;20102;-67
2021/05/10 05:16:35;;;;;;;4.88;2.50;;;17.60;99.90;;;;;;5066098;28;20041;-67
2021/05/10 05:19:01;;;;;;;4.85;2.47;;;17.70;99.90;;;;;;5022206;28;20056;-72
2021/05/10 05:21:27;;;;;;;5.20;2.30;;;18.10;99.90;;;;;;5053155;28;20110;-71
2021/05/10 05:23:53;;;;;;;3.60;2.20;;;18.30;99.90;;;;;;5060937;28;20585;-72
2021/05/10 05:26:19;;;;;;;4.55;2.20;;;18.40;99.90;;;;;;5070354;28;20489;-74
2021/05/10 05:28:44;;;;;;;6.28;2.58;;;18.50;99.90;;;;;;5062110;28;20041;-74
2021/05/10 05:31:10;;;;;;;3.22;1.98;;;18.60;99.90;;;;;;5061652;28;20052;-73
2021/05/10 05:33:36;;;;;;;2.95;2.03;;;18.70;99.90;;;;;;5065201;28;20052;-73
2021/05/10 05:36:02;;;;;;;4.88;2.13;;;18.80;99.90;;;;;;5060561;28;20044;-75
2021/05/10 05:38:34;;;;;;;3.50;2.22;;;18.90;99.90;;;;;;5063520;28;20405;-76
2021/05/10 05:41:00;;;;;;;5.60;2.28;;;18.80;99.90;;;;;;5062864;28;20128;-76
2021/05/10 05:43:26;;;;;;;3.50;2.15;;;18.80;99.90;;;;;;5066136;28;20076;-77
2021/05/10 05:45:52;;;;;;;4.25;2.00;;;18.80;99.90;;;;;;5062666;28;20052;-72
2021/05/10 05:48:18;;;;;;;5.53;2.38;;;19.00;99.90;;;;;;5066504;28;20048;-73
2021/05/10 05:50:44;;;;;;;7.32;1.75;;;19.10;99.90;;;;;;5063829;28;20120;-71
2021/05/10 05:53:10;;;;;;;4.75;2.25;;;19.10;99.90;;;;;;5067749;28;20040;-72
2021/05/10 05:55:36;;;;;;;2.88;1.63;;;19.20;99.90;;;;;;5065502;28;20041;-73
2021/05/10 05:58:02;;;;;;;3.30;1.80;;;19.20;99.90;;;;;;5060312;28;20053;-75
2021/05/10 06:00:29;;;;;;;2.95;1.83;;;19.20;99.90;;;;;;5047638;28;20526;-75
2021/05/10 06:02:55;;;;;;;3.55;1.60;;;19.40;98.50;;;;;;5046443;28;20041;-73
2021/05/10 06:05:20;;;;;;;4.53;1.55;;;19.60;98.10;;;;;;5056069;28;20048;-79
2021/05/10 06:07:48;;;;;;;3.63;1.70;;;19.70;97.90;;;;;;5064901;28;20046;-72
2021/05/10 06:10:18;;;;;;;1.98;1.50;;;19.90;97.10;;;;;;5084347;28;20070;-72
2021/05/10 06:12:47;;;;;;;5.15;2.08;;;19.90;97.10;;;;;;5081678;28;20052;-72
2021/05/10 06:15:13;;;;;;;3.75;1.50;;;20.10;96.10;;;;;;5082856;28;20060;-72
2021/05/10 06:17:41;;;;;;;4.65;1.77;;;20.30;95.90;;;;;;5078048;28;20143;-72
2021/05/10 06:20:09;;;;;;;3.20;1.80;;;20.30;95.80;;;;;;5084131;28;20056;-72
2021/05/10 06:22:39;;;;;;;3.15;1.63;;;20.50;95.10;;;;;;5056320;28;20550;-72
2021/05/10 06:25:13;;;;;;;3.65;1.67;;;20.60;94.80;;;;;;5073714;28;20041;-72
2021/05/10 06:27:39;;;;;;;4.07;1.90;;;20.50;95.00;;;;;;5063408;28;20128;-72
2021/05/10 06:30:07;;;;;;;2.85;1.48;;;20.50;94.90;;;;;;5055509;28;20037;-73
2021/05/10 06:32:33;;;;;;;6.88;1.92;;;20.50;94.70;;;;;;5058002;28;20127;-72
2021/05/10 06:34:59;;;;;;;3.08;1.80;;;20.40;94.80;;;;;;5065805;28;20558;-71
2021/05/10 06:37:29;;;;;;;7.00;1.58;;;20.40;94.60;;;;;;5068414;28;20060;-72
2021/05/10 06:39:58;;;;;;;3.58;1.60;;;20.50;94.30;;;;;;5043265;28;20532;-72
2021/05/10 06:42:25;;;;;;;6.50;1.63;;;20.60;93.90;;;;;;5090977;28;20050;-72
2021/05/10 06:44:51;;;;;;;4.40;2.58;;;20.60;94.10;;;;;;5061014;28;20043;-72
2021/05/10 06:47:17;;;;;;;3.35;1.35;;;20.60;94.10;;;;;;5058340;28;20296;-72
2021/05/10 06:49:43;;;;;;;4.40;1.42;;;20.70;93.80;;;;;;5059500;28;20068;-72
2021/05/10 06:52:09;;;;;;;3.08;1.20;;;20.90;93.50;;;;;;5063668;28;20556;-74
2021/05/10 06:54:35;;;;;;;3.10;1.85;;;21.00;92.70;;;;;;5056574;28;20069;-74
2021/05/10 06:57:01;;;;;;;2.40;1.50;;;21.20;91.70;;;;;;5069542;28;20074;-73
2021/05/10 06:59:27;;;;;;;2.45;1.20;;;21.10;92.50;;;;;;5049855;28;20431;-70
2021/05/10 07:01:53;;;;;;;6.25;1.40;;;21.10;92.30;;;;;;5070795;28;20047;-69
2021/05/10 07:04:19;;;;;;;5.35;1.42;;;21.00;92.90;;;;;;5053761;28;20032;-71
2021/05/10 07:06:45;;;;;;;6.72;2.22;;;21.10;92.30;;;;;;5086234;28;20052;-71
2021/05/10 07:09:11;;;;;;;4.28;1.50;;;21.00;92.70;;;;;;5059186;28;20053;-74
2021/05/10 07:11:37;;;;;;;2.75;1.50;;;20.90;92.70;;;;;;5065667;28;20067;-74
2021/05/10 07:14:04;;;;;;;3.25;1.38;;;21.00;93.00;;;;;;5048705;28;20512;-73
2021/05/10 07:16:31;;;;;;;4.38;1.73;;;21.10;92.50;;;;;;5073098;28;20121;-74
2021/05/10 07:18:57;;;;;;;5.50;1.73;;;20.90;93.50;;;;;;5069972;28;20040;-68
2021/05/10 07:21:25;;;;;;;4.65;1.30;;;21.10;92.80;;;;;;5054935;28;20048;-72
2021/05/10 07:23:52;;;;;;;2.42;1.40;;;20.90;93.80;;;;;;5063667;28;20523;-72
2021/05/10 07:26:18;;;;;;;4.53;1.38;;;21.20;92.80;;;;;;5070956;28;20085;-73
2021/05/10 07:28:45;;;;;;;2.97;1.60;;;21.20;93.60;;;;;;5069747;28;20044;-73
2021/05/10 07:31:11;;;;;;;3.95;1.20;;;21.30;93.20;;;;;;5067017;28;20466;-73
2021/05/10 07:33:37;;;;;;;2.05;1.27;;;21.20;93.80;;;;;;5071656;28;20045;-72
2021/05/10 07:36:03;;;;;;;5.75;1.10;;;21.20;93.00;;;;;;5061068;28;20276;-73
2021/05/10 07:38:30;;;;;;;5.97;1.00;;;21.20;92.70;;;;;;5074786;28;20056;-72
2021/05/10 07:40:56;;;;;;;3.33;1.15;;;21.00;92.10;;;;;;5063842;28;20080;-72
2021/05/10 07:43:22;;;;;;;1.90;1.00;;;21.10;91.50;;;;;;5054884;28;20552;-73
2021/05/10 07:45:48;;;;;;;2.85;0.60;;;21.30;91.90;;;;;;5048865;28;20081;-73
2021/05/10 07:48:16;;;;;;;5.60;0.95;;;21.20;92.00;;;;;;5048217;28;20076;-72
2021/05/10 07:50:43;;;;;;;2.28;0.68;;;21.10;92.20;;;;;;5033781;28;20044;-73
2021/05/10 07:53:09;;;;;;;0.98;0.63;;;21.10;92.10;;;;;;5049487;28;20053;-73
2021/05/10 07:55:37;;;;;;;0.98;0.63;;;21.00;92.00;;;;;;5032392;28;20063;-73
2021/05/10 07:58:03;;;;;;;4.65;0.77;;;21.00;93.10;;;;;;5050641;28;20049;-73
2021/05/10 08:00:31;;;;;;;2.70;0.88;;;21.30;92.60;;;;;;5030484;28;20484;-73
2021/05/10 08:03:08;;;;;;;3.63;1.02;;;21.20;93.50;;;;;;5051149;28;20403;-73
2021/05/10 08:05:35;;;;;;;1.45;0.85;;;21.10;94.70;;;;;;5031436;28;20062;-72
2021/05/10 08:08:02;;;;;;;1.88;1.00;;;21.20;94.50;;;;;;5050778;28;20041;-73
2021/05/10 08:10:29;;;;;;;4.78;1.35;;;21.10;94.50;;;;;;5030455;28;20053;-73
2021/05/10 08:12:55;;;;;;;4.72;1.10;;;21.10;93.70;;;;;;5048717;28;20045;-73
2021/05/10 08:15:22;;;;;;;3.40;1.10;;;21.00;95.30;;;;;;5025713;28;20050;-72
2021/05/10 08:17:48;;;;;;;3.58;1.20;;;20.60;96.70;;;;;;5046415;28;20084;-72
2021/05/10 08:20:14;;;;;;;2.13;1.00;;;20.40;97.10;;;;;;5037531;28;20048;-73
2021/05/10 08:22:40;;;;;;;1.90;0.93;;;20.00;97.10;;;;;;5026756;28;20085;-72
2021/05/10 08:25:06;;;;;;;2.40;1.13;;;19.80;96.70;;;;;;5037667;28;20257;-73
2021/05/10 08:27:35;;;;;;;2.25;0.90;;;19.50;97.40;;;;;;5079949;28;20078;-72
2021/05/10 08:30:09;;;;;;;3.83;1.20;;;19.40;99.40;;;;;;5058418;28;20076;-73
2021/05/10 08:32:35;;;;;;;1.73;1.20;;;19.40;99.30;;;;;;5080857;28;20348;-73
2021/05/10 08:35:02;;;;;;;2.40;1.00;;;19.60;98.90;;;;;;5056784;28;20056;-72
2021/05/10 08:37:29;;;;;;;1.88;1.00;;;19.70;99.00;;;;;;5062405;28;20071;-73
2021/05/10 08:39:56;;;;;;;4.70;1.10;;;19.70;99.70;;;;;;5054009;28;20045;-72
2021/05/10 08:42:22;;;;;;;2.88;1.40;;;19.80;99.20;;;;;;5069121;28;20052;-72
2021/05/10 08:44:48;;;;;;;2.35;1.00;;;19.80;99.40;;;;;;5057858;28;20049;-72
2021/05/10 08:47:14;;;;;;;3.17;1.00;;;19.70;99.30;;;;;;5079082;28;20048;-72
2021/05/10 08:49:40;;;;;;;2.55;1.00;;;19.80;99.20;;;;;;5058250;28;20079;-72
2021/05/10 08:52:06;;;;;;;1.50;1.05;;;19.80;99.50;;;;;;5076892;28;20052;-72
2021/05/10 08:54:33;;;;;;;1.75;0.98;;;19.90;98.90;;;;;;5060843;28;20483;-72
2021/05/10 08:57:02;;;;;;;2.15;0.90;;;19.90;98.60;;;;;;5074165;28;20575;-71
2021/05/10 08:59:28;;;;;;;1.20;0.93;;;20.10;98.30;;;;;;5061853;28;20072;-72
2021/05/10 09:01:58;;;;;;;0.95;0.68;;;20.00;98.90;;;;;;5073648;28;20052;-71
2021/05/10 09:04:36;;;;;;;2.40;0.90;;;20.20;97.70;;;;;;5069938;28;20113;-72
2021/05/10 09:07:12;;;;;;;1.80;0.70;;;20.50;95.50;;;;;;5084487;28;20092;-72
2021/05/10 09:09:58;;;;;;;3.08;0.85;;;20.60;94.20;;;;;;5061327;28;20049;-72
2021/05/10 09:12:24;;;;;;;2.33;0.68;;;20.40;94.80;;;;;;5093591;28;20055;-72
2021/05/10 09:14:51;;;;;;;1.27;0.80;;;20.40;94.90;;;;;;5058162;28;20057;-72
2021/05/10 09:17:18;;;;;;;2.05;0.70;;;20.40;95.00;;;;;;5078567;28;20040;-72
2021/05/10 09:19:57;;;;;;;2.03;0.55;;;20.30;95.80;;;;;;5049749;28;20087;-72
2021/05/10 09:22:24;;;;;;;6.32;1.20;;;20.10;96.40;;;;;;5043054;28;20048;-72
2021/05/10 09:24:53;;;;;;;4.32;1.13;;;19.90;97.10;;;;;;5059728;28;20072;-71
2021/05/10 09:27:27;;;;;;;;;;;19.80;96.90;;;;;;5067808;28;20135;-72
2021/05/10 09:30:16;;;;;;;4.95;1.45;;;19.70;97.10;;;;;;5059382;28;20234;-71
2021/05/10 09:32:47;;;;;;;5.18;1.15;;;19.90;98.90;;;;;;5082264;28;20103;-71
2021/05/10 09:35:17;;;;;;;2.35;1.00;;;20.00;97.50;;;;;;5058869;28;20041;-71
2021/05/10 09:37:43;;;;;;;;;;;20.10;97.40;;;;;;5085898;28;20535;-72
2021/05/10 09:40:10;;;;;;;2.45;1.10;;;20.00;97.70;;;;;;5069572;28;19932;-71
2021/05/10 09:42:54;;;;;;;4.00;1.05;;;20.20;97.50;;;;;;5080218;28;20083;-71
2021/05/10 09:45:30;;;;;;;2.38;0.82;;;20.10;97.70;;;;;;5056470;28;20037;-71
2021/05/10 09:48:03;;;;;;;6.53;1.30;;;20.30;97.50;;;;;;5063529;28;20118;-72
2021/05/10 09:50:34;;;;;;;3.45;1.30;;;20.30;98.50;;;;;;5073495;28;20045;-72
2021/05/10 09:53:02;;;;;;;1.90;1.13;;;20.30;97.70;;;;;;5045826;28;20052;-71
2021/05/10 09:55:52;;;;;;;1.20;1.10;;;20.10;97.70;;;;;;5056520;28;20048;-71
2021/05/10 09:58:21;;;;;;;2.63;1.30;;;20.00;98.60;;;;;;5045479;28;20552;-71
2021/05/10 10:00:55;;;;;;;1.38;0.90;;;20.00;97.60;;;;;;5049348;28;20459;-72
2021/05/10 10:03:26;;;;;;;3.40;1.30;;;20.10;97.00;;;;;;5070882;28;20472;-71
2021/05/10 10:06:00;;;;;;;2.40;1.10;;;20.10;99.00;;;;;;5052402;28;20053;-71
2021/05/10 10:08:26;;;;;;;2.13;1.10;;;20.30;96.20;;;;;;5065290;28;20072;-71
2021/05/10 10:10:53;;;;;;;6.88;1.50;;;20.30;97.50;;;;;;5049315;28;20049;-71
2021/05/10 10:13:19;;;;;;;6.65;1.60;;;20.10;96.90;;;;;;5098042;28;20052;-71
2021/05/10 10:15:47;;;;;;;3.70;1.40;;;20.10;97.20;;;;;;5053793;28;20049;-71
2021/05/10 10:18:16;;;;;;;2.67;1.45;;;19.90;98.50;;;;;;5096936;28;20064;-72
2021/05/10 10:20:42;;;;;;;2.37;1.40;;;19.80;98.00;;;;;;5056717;28;20068;-72
2021/05/10 10:23:11;;;;;;;1.67;1.20;;;19.80;98.40;;;;;;5031855;28;20069;-71
2021/05/10 10:25:38;;;;;;;3.78;1.23;;;19.90;98.40;;;;;;5057661;28;20044;-71
2021/05/10 10:28:08;;;;;;;3.78;1.38;;;19.80;98.50;;;;;;5079632;28;20052;-71
2021/05/10 10:30:39;;;;;;;26.27;2.15;;;19.60;97.90;;;;;;5058959;28;20079;-71
2021/05/10 10:33:08;;;;;;;5.97;1.50;;;19.10;99.60;;;;;;5078322;28;20044;-71
2021/05/10 10:35:41;;;;;;;6.50;1.52;;;18.40;99.90;;;;;;5056343;28;20044;-73
2021/05/10 10:38:07;;;;;;;1.45;1.10;;;18.00;99.90;;;;;;5075529;28;20060;-72
2021/05/10 10:40:32;;;;;;;3.25;1.15;;;17.60;99.90;;;;;;5058790;28;20073;-71
2021/05/10 10:43:25;;;;;;;1.77;1.00;;;17.20;99.90;;;;;;5082065;28;20048;-71
2021/05/10 10:46:21;;;;;;;2.08;1.10;;;17.00;99.90;;;;;;5045307;28;20568;-71
2021/05/10 10:48:49;;;;;;;2.78;1.20;;;16.70;99.90;;;;;;5072082;28;20053;-73
2021/05/10 10:51:15;;;;;;;1.67;1.00;;;16.50;99.90;;;;;;5045590;28;20056;-73
2021/05/10 10:53:44;;;;;;;1.10;0.95;;;16.50;99.90;;;;;;5068394;28;20477;-73
2021/05/10 10:56:10;;;;;;;1.77;1.20;;;16.50;99.90;;;;;;5041982;28;20037;-72
2021/05/10 10:58:39;;;;;;;2.30;1.08;;;16.60;99.90;;;;;;5076170;28;20049;-70
2021/05/10 11:01:09;;;;;;;1.38;1.08;;;16.70;99.90;;;;;;5059682;28;20100;-70
2021/05/10 11:03:37;;;;;;;1.25;1.10;;;16.70;99.90;;;;;;5102908;28;20044;-70
2021/05/10 11:06:04;;;;;;;1.10;0.98;;;17.00;99.90;;;;;;5059309;28;20486;-70
2021/05/10 11:08:39;;;;;;;1.65;1.00;;;17.00;99.90;;;;;;5090863;28;20083;-70
2021/05/10 11:11:06;;;;;;;1.17;1.08;;;17.10;99.90;;;;;;5065376;28;20041;-71
2021/05/10 11:13:32;;;;;;;1.20;1.00;;;17.20;99.90;;;;;;5096400;28;20079;-71
2021/05/10 11:16:12;;;;;;;1.17;0.80;;;17.20;99.90;;;;;;5055315;28;20049;-71
2021/05/10 11:18:55;;;;;;;3.17;1.00;;;17.10;99.90;;;;;;5093142;28;20176;-71
2021/05/10 11:21:21;;;;;;;1.80;0.88;;;17.20;99.90;;;;;;5041491;28;20143;-70
2021/05/10 11:24:09;;;;;;;1.35;0.90;;;17.10;99.90;;;;;;5085179;28;20146;-70
2021/05/10 11:26:46;;;;;;;1.98;1.30;;;16.90;99.90;;;;;;5060339;28;20059;-70
2021/05/10 11:29:33;;;;;;;1.88;1.05;;;16.90;99.90;;;;;;5087288;28;20058;-70
2021/05/10 11:32:19;;;;;;;2.05;1.17;;;16.80;99.90;;;;;;5063880;28;20076;-71
2021/05/10 11:34:46;;;;;;;1.40;1.05;;;16.90;99.90;;;;;;5074400;28;20064;-70
2021/05/10 11:37:12;;;;;;;1.70;1.13;;;17.00;99.90;;;;;;5070417;28;20445;-70
2021/05/10 11:39:39;;;;;;;1.25;1.15;;;17.10;99.90;;;;;;5071712;28;20049;-70
2021/05/10 11:42:06;;;;;;;1.60;1.02;;;17.10;99.90;;;;;;5064582;28;20043;-71
2021/05/10 11:44:34;;;;;;;1.33;0.93;;;17.50;99.90;;;;;;5073470;28;20048;-71
2021/05/10 11:47:08;;;;;;;2.75;1.45;;;17.40;99.90;;;;;;5075008;28;20093;-71
2021/05/10 11:49:50;;;;;;;1.27;1.02;;;17.60;99.80;;;;;;5070736;28;20057;-71
2021/05/10 11:52:15;;;;;;;3.15;1.30;;;17.40;99.90;;;;;;5074065;28;20058;-71
2021/05/10 11:54:50;;;;;;;5.43;1.45;;;17.30;99.90;;;;;;5077065;28;20045;-71
2021/05/10 11:57:20;;;;;;;2.20;1.08;;;17.40;99.90;;;;;;5076354;28;20048;-71
2021/05/10 11:59:51;;;;;;;3.17;1.05;;;17.40;99.90;;;;;;5070997;28;20055;-71
2021/05/10 12:02:18;;;;;;;1.73;1.10;;;17.40;99.90;;;;;;5062628;28;20070;-71
2021/05/10 12:04:48;;;;;;;2.97;1.50;;;17.40;99.90;;;;;;5074001;28;20041;-71
2021/05/10 12:07:15;;;;;;;2.65;1.40;;;17.40;99.90;;;;;;5068679;28;20132;-71
2021/05/10 12:09:53;;;;;;;2.75;1.50;;;17.40;99.90;;;;;;5079249;28;20094;-71
2021/05/10 12:12:18;;;;;;;2.05;1.85;;;17.50;99.90;;;;;;5068925;28;20043;-71
2021/05/10 12:14:52;;;;;;;2.08;1.60;;;17.30;99.90;;;;;;5079458;28;20037;-71
2021/05/10 12:17:26;;;;;;;2.80;1.85;;;17.20;99.90;;;;;;5071594;28;20044;-71
2021/05/10 12:19:52;;;;;;;2.78;1.85;;;17.20;99.90;;;;;;5071341;28;20053;-71
2021/05/10 12:22:20;;;;;;;2.90;1.98;;;17.30;99.90;;;;;;5065285;28;20552;-71
2021/05/10 12:25:06;;;;;;;2.78;1.90;;;17.40;99.90;;;;;;5073915;28;20052;-71
2021/05/10 12:27:38;;;;;;;3.22;1.90;;;17.20;99.90;;;;;;5070313;28;20059;-72
2021/05/10 12:30:13;;;;;;;2.88;2.13;;;17.20;99.90;;;;;;5068770;28;20044;-71
2021/05/10 12:32:41;;;;;;;3.55;2.13;;;17.20;99.90;;;;;;5074507;28;20048;-71
2021/05/10 12:35:10;;;;;;;4.10;2.38;;;17.20;99.90;;;;;;5078696;28;20048;-71
2021/05/10 12:37:43;;;;;;;2.70;2.20;;;17.10;99.90;;;;;;5084099;28;20048;-71
2021/05/10 12:40:11;;;;;;;3.30;2.20;;;17.00;99.90;;;;;;5065580;28;20052;-72
2021/05/10 12:42:37;;;;;;;3.95;2.53;;;16.70;99.90;;;;;;5059404;28;20040;-71
2021/05/10 12:45:09;;;;;;;3.75;2.53;;;16.70;99.90;;;;;;5063474;28;20059;-71
2021/05/10 12:47:51;;;;;;;3.13;2.15;;;16.80;99.90;;;;;;5071631;28;20052;-72
2021/05/10 12:50:36;;;;;;;3.88;2.60;;;16.50;99.90;;;;;;5066125;28;20044;-70
2021/05/10 12:53:05;;;;;;;5.40;2.88;;;16.70;99.90;;;;;;5065530;28;20437;-71
2021/05/10 12:55:33;;;;;;;3.28;2.70;;;16.80;99.90;;;;;;5064685;28;20087;-71
2021/05/10 12:58:00;;;;;;;4.45;2.75;;;16.90;99.90;;;;;;5077168;28;20086;-71